createdAt,value
2024-02-17T00:00:21.960Z,12.40
2024-02-17T00:02:49.116Z,12.50
2024-02-17T00:05:16.168Z,12.50
2024-02-17T00:07:43.092Z,12.50
2024-02-17T00:10:10.081Z,12.50
2024-02-17T00:12:38.622Z,12.40
2024-02-17T00:15:07.425Z,12.40
2024-02-17T00:17:34.809Z,12.40
2024-02-17T00:20:01.905Z,12.40
2024-02-17T00:22:28.907Z,12.40
2024-02-17T00:24:56.883Z,12.40
2024-02-17T00:27:23.914Z,12.40
2024-02-17T00:29:50.829Z,12.40
2024-02-17T00:32:17.713Z,12.40
2024-02-17T00:34:44.561Z,12.40
2024-02-17T00:37:11.439Z,12.40
2024-02-17T00:39:38.347Z,12.40
2024-02-17T00:42:05.957Z,12.40
2024-02-17T00:44:36.904Z,12.40
2024-02-17T00:47:04.028Z,12.40
2024-02-17T00:49:31.144Z,12.40
2024-02-17T00:51:58.107Z,12.40
2024-02-17T00:54:24.936Z,12.40
2024-02-17T00:56:51.895Z,12.40
2024-02-17T00:59:18.734Z,12.40
2024-02-17T01:01:45.744Z,12.50
2024-02-17T01:04:13.536Z,12.50
2024-02-17T01:06:40.507Z,12.60
2024-02-17T01:09:07.538Z,12.60
2024-02-17T01:11:36.458Z,12.60
2024-02-17T01:14:03.430Z,12.60
2024-02-17T01:16:30.248Z,12.60
2024-02-17T01:18:57.603Z,12.70
2024-02-17T01:21:24.752Z,12.70
2024-02-17T01:23:51.803Z,12.70
2024-02-17T01:26:18.641Z,12.70
2024-02-17T01:28:45.848Z,12.60
2024-02-17T01:31:12.789Z,12.70
2024-02-17T01:33:39.695Z,12.70
2024-02-17T01:36:13.718Z,12.70
2024-02-17T01:38:40.521Z,12.70
2024-02-17T01:41:07.550Z,12.60
2024-02-17T01:43:35.445Z,12.60
2024-02-17T01:46:02.732Z,12.70
2024-02-17T01:48:30.184Z,12.70
2024-02-17T01:50:58.050Z,12.60
2024-02-17T01:53:25.186Z,12.60
2024-02-17T01:58:41.985Z,12.60
2024-02-17T02:01:09.622Z,12.50
2024-02-17T02:03:37.529Z,12.50
2024-02-17T02:06:04.684Z,12.50
2024-02-17T02:08:31.936Z,12.40
2024-02-17T02:11:01.474Z,12.30
2024-02-17T02:13:28.692Z,12.30
2024-02-17T02:15:55.794Z,12.30
2024-02-17T02:18:23.916Z,12.20
2024-02-17T02:20:51.057Z,12.20
2024-02-17T02:23:18.293Z,12.20
2024-02-17T02:25:54.945Z,12.20
2024-02-17T02:28:22.134Z,12.20
2024-02-17T02:30:49.532Z,12.10
2024-02-17T02:33:16.710Z,12.10
2024-02-17T02:35:43.858Z,12.10
2024-02-17T02:38:10.717Z,12.00
2024-02-17T02:40:37.779Z,12.00
2024-02-17T02:43:05.930Z,12.00
2024-02-17T02:45:34.995Z,12.00
2024-02-17T02:48:02.129Z,12.00
2024-02-17T02:50:29.056Z,12.00
2024-02-17T02:52:55.939Z,12.00
2024-02-17T02:55:22.832Z,12.00
2024-02-17T02:57:49.872Z,11.90
2024-02-17T03:00:17.148Z,11.90
2024-02-17T03:02:44.120Z,11.80
2024-02-17T03:05:10.964Z,11.80
2024-02-17T03:07:37.890Z,11.80
2024-02-17T03:10:05.094Z,11.70
2024-02-17T03:12:32.010Z,11.70
2024-02-17T03:14:59.822Z,11.70
2024-02-17T03:17:26.805Z,11.70
2024-02-17T03:19:53.743Z,11.60
2024-02-17T03:22:20.782Z,11.60
2024-02-17T03:24:48.121Z,11.60
2024-02-17T03:27:15.017Z,11.50
2024-02-17T03:29:41.875Z,11.50
2024-02-17T03:32:09.657Z,11.40
2024-02-17T03:34:36.599Z,11.30
2024-02-17T03:37:03.683Z,11.30
2024-02-17T03:39:30.773Z,11.20
2024-02-17T03:41:57.621Z,11.10
2024-02-17T03:44:24.843Z,11.10
2024-02-17T03:46:51.900Z,11.10
2024-02-17T03:49:21.761Z,11.00
2024-02-17T03:51:49.254Z,11.00
2024-02-17T03:54:16.744Z,10.90
2024-02-17T03:56:43.834Z,10.90
2024-02-17T03:59:10.669Z,10.90
2024-02-17T04:01:41.253Z,10.90
2024-02-17T04:04:09.601Z,10.80
2024-02-17T04:06:37.187Z,10.90
2024-02-17T04:09:04.292Z,10.90
2024-02-17T04:11:31.366Z,10.90
2024-02-17T04:13:58.338Z,10.80
2024-02-17T04:16:25.204Z,10.70
2024-02-17T04:18:52.169Z,10.70
2024-02-17T04:21:26.668Z,10.50
2024-02-17T04:23:53.561Z,10.40
2024-02-17T04:26:20.537Z,10.40
2024-02-17T04:28:48.516Z,10.30
2024-02-17T04:31:15.416Z,10.30
2024-02-17T04:33:42.741Z,10.20
2024-02-17T04:36:10.424Z,10.10
2024-02-17T04:38:37.521Z,10.00
2024-02-17T04:41:04.637Z,9.90
2024-02-17T04:43:31.742Z,9.80
2024-02-17T04:45:58.559Z,9.70
2024-02-17T04:48:25.514Z,9.70
2024-02-17T04:50:52.439Z,9.60
2024-02-17T04:53:19.507Z,9.60
2024-02-17T04:55:46.364Z,9.60
2024-02-17T04:58:18.192Z,9.50
2024-02-17T05:00:47.557Z,9.50
2024-02-17T05:03:17.648Z,9.40
2024-02-17T05:05:45.814Z,9.40
2024-02-17T05:08:13.105Z,9.30
2024-02-17T05:10:40.419Z,9.30
2024-02-17T05:13:07.816Z,9.40
2024-02-17T05:15:35.588Z,9.40
2024-02-17T05:18:02.648Z,9.40
2024-02-17T05:20:29.480Z,9.30
2024-02-17T05:22:56.241Z,9.20
2024-02-17T05:25:23.118Z,9.00
2024-02-17T05:27:49.942Z,8.90
2024-02-17T05:30:17.000Z,8.80
2024-02-17T05:32:53.017Z,8.80
2024-02-17T05:35:20.147Z,8.80
2024-02-17T05:37:46.903Z,8.80
2024-02-17T05:40:14.060Z,8.70
2024-02-17T05:42:41.236Z,8.70
2024-02-17T05:45:08.940Z,8.60
2024-02-17T05:47:35.960Z,8.60
2024-02-17T05:50:05.062Z,8.60
2024-02-17T05:52:32.161Z,8.50
2024-02-17T05:54:59.033Z,8.50
2024-02-17T05:57:26.006Z,8.40
2024-02-17T05:59:53.911Z,8.30
2024-02-17T06:02:20.811Z,8.30
2024-02-17T06:04:47.912Z,8.30
2024-02-17T06:07:14.957Z,8.20
2024-02-17T06:09:41.881Z,8.10
2024-02-17T06:12:08.893Z,8.10
2024-02-17T06:14:35.754Z,8.10
2024-02-17T06:17:08.593Z,8.00
2024-02-17T06:20:01.759Z,7.90
2024-02-17T06:22:28.659Z,7.80
2024-02-17T06:24:55.919Z,7.80
2024-02-17T06:27:22.745Z,7.70
2024-02-17T06:29:49.624Z,7.60
2024-02-17T06:32:16.456Z,7.60
2024-02-17T06:34:43.720Z,7.60
2024-02-17T06:37:10.652Z,7.60
2024-02-17T06:39:37.568Z,7.50
2024-02-17T06:42:04.863Z,7.50
2024-02-17T06:44:34.882Z,7.50
2024-02-17T06:47:01.911Z,7.50
2024-02-17T06:49:28.744Z,7.50
2024-02-17T06:51:55.989Z,7.50
2024-02-17T06:54:23.317Z,7.60
2024-02-17T06:56:50.239Z,7.60
2024-02-17T06:59:17.068Z,7.70
2024-02-17T07:01:44.363Z,7.80
2024-02-17T07:04:12.061Z,8.00
2024-02-17T07:06:39.213Z,8.10
2024-02-17T07:09:07.243Z,8.20
2024-02-17T07:11:34.310Z,8.30
2024-02-17T07:14:01.093Z,8.40
2024-02-17T07:16:27.868Z,8.50
2024-02-17T07:18:58.787Z,8.60
2024-02-17T07:21:28.591Z,8.60
2024-02-17T07:23:55.531Z,8.70
2024-02-17T07:26:22.499Z,8.80
2024-02-17T07:28:49.476Z,8.90
2024-02-17T07:31:17.988Z,9.00
2024-02-17T07:33:47.516Z,9.10
2024-02-17T07:36:14.867Z,9.20
2024-02-17T07:38:41.691Z,9.30
2024-02-17T07:41:08.719Z,9.40
2024-02-17T07:43:35.559Z,9.50
2024-02-17T07:46:02.477Z,10.00
2024-02-17T07:48:29.910Z,10.30
2024-02-17T07:50:56.938Z,10.30
2024-02-17T07:53:23.727Z,10.30
2024-02-17T07:55:50.565Z,10.50
2024-02-17T07:58:18.326Z,10.50
2024-02-17T08:00:45.190Z,10.60
2024-02-17T08:03:14.000Z,10.70
2024-02-17T08:05:40.898Z,10.80
2024-02-17T08:08:07.737Z,10.90
2024-02-17T08:10:34.586Z,11.00
2024-02-17T08:13:01.493Z,11.00
2024-02-17T08:15:28.674Z,11.10
2024-02-17T08:17:55.505Z,11.10
2024-02-17T08:20:23.013Z,11.10
2024-02-17T08:22:49.965Z,11.10
2024-02-17T08:25:16.750Z,11.00
2024-02-17T08:27:44.922Z,11.00
2024-02-17T08:30:12.404Z,11.30
2024-02-17T08:32:39.337Z,11.80
2024-02-17T08:35:06.554Z,12.30
2024-02-17T08:37:33.495Z,12.60
2024-02-17T08:40:00.388Z,12.90
2024-02-17T08:42:27.207Z,13.20
2024-02-17T08:44:54.858Z,13.50
2024-02-17T08:47:22.455Z,13.90
2024-02-17T08:49:50.535Z,14.20
2024-02-17T08:52:17.670Z,14.50
2024-02-17T08:54:44.565Z,15.10
2024-02-17T08:57:11.524Z,15.70
2024-02-17T08:59:38.686Z,16.10
2024-02-17T09:02:05.688Z,16.20
2024-02-17T09:04:35.166Z,16.20
2024-02-17T09:07:02.284Z,16.20
2024-02-17T09:09:29.703Z,16.30
2024-02-17T09:11:56.748Z,16.50
2024-02-17T09:14:23.873Z,16.80
2024-02-17T09:16:50.984Z,16.90
2024-02-17T09:19:17.889Z,16.80
2024-02-17T09:21:44.815Z,16.70
2024-02-17T09:24:11.902Z,16.60
2024-02-17T09:26:38.757Z,16.40
2024-02-17T09:29:05.681Z,16.30
2024-02-17T09:31:34.950Z,16.10
2024-02-17T09:34:03.007Z,15.90
2024-02-17T09:36:31.259Z,15.80
2024-02-17T09:38:58.055Z,15.70
2024-02-17T09:41:25.014Z,15.60
2024-02-17T09:43:51.853Z,15.50
2024-02-17T09:46:19.243Z,15.40
2024-02-17T09:48:46.272Z,15.40
2024-02-17T09:51:13.374Z,15.30
2024-02-17T09:53:41.867Z,15.40
2024-02-17T09:56:08.860Z,15.40
2024-02-17T09:58:36.347Z,15.40
2024-02-17T10:01:03.712Z,15.50
2024-02-17T10:03:31.545Z,15.50
2024-02-17T10:06:11.255Z,15.50
2024-02-17T10:08:42.038Z,15.50
2024-02-17T10:11:13.049Z,15.70
2024-02-17T10:13:42.197Z,16.30
2024-02-17T10:16:13.835Z,16.60
2024-02-17T10:18:43.104Z,16.70
2024-02-17T10:21:11.131Z,16.70
2024-02-17T10:23:38.260Z,16.80
2024-02-17T10:26:06.630Z,16.80
2024-02-17T10:28:33.820Z,17.00
2024-02-17T10:31:03.608Z,17.00
2024-02-17T10:33:30.738Z,16.90
2024-02-17T10:36:02.044Z,16.70
2024-02-17T10:38:30.669Z,16.50
2024-02-17T10:40:57.518Z,16.40
2024-02-17T10:43:24.379Z,16.20
2024-02-17T10:45:56.651Z,16.00
2024-02-17T10:48:26.345Z,15.90
2024-02-17T10:50:54.106Z,15.80
2024-02-17T10:53:41.133Z,15.70
2024-02-17T10:56:15.211Z,15.60
2024-02-17T10:58:42.359Z,15.50
2024-02-17T11:01:10.754Z,15.40
2024-02-17T11:03:39.105Z,15.30
2024-02-17T11:06:08.895Z,15.20
2024-02-17T11:08:36.504Z,15.10
2024-02-17T11:11:23.027Z,15.10
2024-02-17T11:13:50.050Z,15.00
2024-02-17T11:16:18.186Z,15.00
2024-02-17T11:18:49.849Z,14.90
2024-02-17T11:21:38.828Z,14.90
2024-02-17T11:24:12.179Z,14.90
2024-02-17T11:26:44.735Z,14.90
2024-02-17T11:29:29.393Z,14.90
2024-02-17T11:32:05.760Z,15.00
2024-02-17T11:34:33.120Z,15.10
2024-02-17T11:37:01.901Z,15.00
2024-02-17T11:39:33.144Z,15.00
2024-02-17T11:42:08.918Z,15.10
2024-02-17T11:44:37.515Z,15.20
2024-02-17T11:47:04.522Z,15.20
2024-02-17T11:49:34.583Z,15.20
2024-02-17T11:52:01.775Z,15.30
2024-02-17T11:54:30.803Z,15.30
2024-02-17T11:56:57.677Z,15.40
2024-02-17T11:59:29.769Z,15.50
2024-02-17T12:01:59.558Z,15.50
2024-02-17T12:04:27.363Z,15.50
2024-02-17T12:06:54.435Z,15.40
2024-02-17T12:09:21.733Z,15.40
2024-02-17T12:11:49.104Z,15.50
2024-02-17T12:14:18.242Z,15.50
2024-02-17T12:16:45.352Z,15.60
2024-02-17T12:19:13.223Z,15.60
2024-02-17T12:21:41.530Z,15.70
2024-02-17T12:24:08.721Z,15.70
2024-02-17T12:26:45.315Z,15.80
2024-02-17T12:29:15.832Z,15.90
2024-02-17T12:31:47.409Z,15.90
2024-02-17T12:34:36.102Z,15.70
2024-02-17T12:37:08.075Z,15.60
2024-02-17T12:39:35.111Z,15.50
2024-02-17T12:42:05.386Z,15.50
2024-02-17T12:44:32.713Z,15.40
2024-02-17T12:46:59.649Z,15.40
2024-02-17T12:49:27.620Z,15.30
2024-02-17T12:51:55.279Z,15.10
2024-02-17T12:54:22.685Z,15.00
2024-02-17T12:56:49.544Z,14.80
2024-02-17T12:59:16.702Z,14.70
2024-02-17T13:01:43.755Z,14.50
2024-02-17T13:04:10.631Z,14.40
2024-02-17T13:06:39.265Z,14.40
2024-02-17T13:09:07.573Z,14.30
2024-02-17T13:11:34.664Z,14.20
2024-02-17T13:14:01.587Z,14.10
2024-02-17T13:16:29.684Z,14.10
2024-02-17T13:18:58.578Z,14.00
2024-02-17T13:21:25.794Z,14.00
2024-02-17T13:23:52.554Z,14.00
2024-02-17T13:26:19.392Z,13.90
2024-02-17T13:28:48.403Z,13.90
2024-02-17T13:31:20.123Z,13.90
2024-02-17T13:33:48.308Z,13.90
2024-02-17T13:36:15.317Z,13.90
2024-02-17T13:38:42.145Z,13.80
2024-02-17T13:41:09.103Z,13.80
2024-02-17T13:43:36.012Z,13.70
2024-02-17T13:46:02.955Z,13.70
2024-02-17T13:48:30.137Z,13.70
2024-02-17T13:50:57.094Z,13.70
2024-02-17T13:53:23.962Z,13.70
2024-02-17T13:55:50.800Z,13.60
2024-02-17T13:58:17.860Z,13.60
2024-02-17T14:00:45.372Z,13.60
2024-02-17T14:03:12.790Z,13.70
2024-02-17T14:05:39.882Z,13.70
2024-02-17T14:08:06.985Z,13.70
2024-02-17T14:10:33.935Z,13.70
2024-02-17T14:13:01.337Z,13.80
2024-02-17T14:15:28.375Z,13.80
2024-02-17T14:17:55.468Z,13.90
2024-02-17T14:20:22.460Z,14.00
2024-02-17T14:22:49.293Z,14.10
2024-02-17T14:25:16.239Z,14.10
2024-02-17T14:27:43.339Z,14.20
2024-02-17T14:30:10.967Z,14.20
2024-02-17T14:32:38.252Z,14.10
2024-02-17T14:35:05.533Z,14.10
2024-02-17T14:37:32.434Z,14.10
2024-02-17T14:39:59.695Z,14.10
2024-02-17T14:42:26.862Z,14.10
2024-02-17T14:44:53.856Z,14.10
2024-02-17T14:47:20.869Z,14.20
2024-02-17T14:49:47.970Z,14.20
2024-02-17T14:52:14.803Z,14.20
2024-02-17T14:54:44.704Z,14.10
2024-02-17T14:57:13.430Z,14.10
2024-02-17T14:59:40.504Z,14.10
2024-02-17T15:02:07.763Z,14.00
2024-02-17T15:04:34.730Z,14.00
2024-02-17T15:07:01.991Z,13.90
2024-02-17T15:09:28.990Z,13.90
2024-02-17T15:11:58.895Z,13.80
2024-02-17T15:14:26.654Z,13.80
2024-02-17T15:16:53.571Z,13.80
2024-02-17T15:19:21.029Z,13.80
2024-02-17T15:21:47.872Z,13.70
2024-02-17T15:24:14.745Z,13.70
2024-02-17T15:26:41.477Z,13.70
2024-02-17T15:29:08.510Z,13.70
2024-02-17T15:31:35.283Z,13.60
2024-02-17T15:34:02.328Z,13.60
2024-02-17T15:36:29.414Z,13.60
2024-02-17T15:38:57.268Z,13.60
2024-02-17T15:41:24.140Z,13.60
2024-02-17T15:43:51.000Z,13.60
2024-02-17T15:46:17.980Z,13.50
2024-02-17T15:48:45.039Z,13.50
2024-02-17T15:51:12.926Z,13.50
2024-02-17T15:53:39.778Z,13.50
2024-02-17T15:56:12.305Z,13.40
2024-02-17T15:58:39.784Z,13.40
2024-02-17T16:01:07.801Z,13.40
2024-02-17T16:03:35.674Z,13.40
2024-02-17T16:06:09.785Z,13.40
2024-02-17T16:08:38.146Z,13.40
2024-02-17T16:11:05.743Z,13.30
2024-02-17T16:13:35.686Z,13.30
2024-02-17T16:16:02.788Z,13.20
2024-02-17T16:18:33.047Z,13.20
2024-02-17T16:21:04.635Z,13.10
2024-02-17T16:23:33.217Z,13.00
2024-02-17T16:26:00.041Z,13.00
2024-02-17T16:28:26.876Z,13.00
2024-02-17T16:30:55.347Z,13.00
2024-02-17T16:33:25.339Z,12.90
2024-02-17T16:35:52.446Z,12.90
2024-02-17T16:38:19.261Z,12.80
2024-02-17T16:40:46.212Z,12.80
2024-02-17T16:43:13.073Z,12.80
2024-02-17T16:45:40.492Z,12.70
2024-02-17T16:48:08.208Z,12.60
2024-02-17T16:50:35.163Z,12.50
2024-02-17T16:53:02.056Z,12.50
2024-02-17T16:55:29.670Z,12.50
2024-02-17T16:57:56.834Z,12.40
2024-02-17T17:00:25.342Z,12.40
2024-02-17T17:02:53.181Z,12.30
2024-02-17T17:05:20.114Z,12.30
2024-02-17T17:07:47.130Z,12.30
2024-02-17T17:10:14.116Z,12.30
2024-02-17T17:12:41.230Z,12.30
2024-02-17T17:15:10.004Z,12.30
2024-02-17T17:17:37.652Z,12.30
2024-02-17T17:20:05.254Z,12.30
2024-02-17T17:25:03.447Z,12.30
2024-02-17T17:27:30.863Z,12.30
2024-02-17T17:29:57.755Z,12.20
2024-02-17T17:32:24.540Z,12.20
2024-02-17T17:34:51.516Z,12.20
2024-02-17T17:37:18.395Z,12.20
2024-02-17T17:39:45.350Z,12.20
2024-02-17T17:42:13.054Z,12.20
2024-02-17T17:44:39.887Z,12.20
2024-02-17T17:47:06.871Z,12.10
2024-02-17T17:49:33.846Z,12.10
2024-02-17T17:52:00.899Z,12.10
2024-02-17T17:54:27.909Z,12.10
2024-02-17T17:56:54.816Z,12.10
2024-02-17T17:59:21.664Z,12.10
2024-02-17T18:01:48.551Z,12.10
2024-02-17T18:04:15.504Z,12.10
2024-02-17T18:06:42.822Z,12.00
2024-02-17T18:09:09.839Z,12.00
2024-02-17T18:11:37.094Z,12.00
2024-02-17T18:14:03.921Z,12.00
2024-02-17T18:16:30.721Z,12.00
2024-02-17T18:18:57.716Z,12.00
2024-02-17T18:21:24.662Z,12.00
2024-02-17T18:23:51.487Z,12.00
2024-02-17T18:26:18.214Z,12.00
2024-02-17T18:28:45.032Z,12.00
2024-02-17T18:31:11.896Z,11.90
2024-02-17T18:33:43.998Z,11.90
2024-02-17T18:36:16.607Z,11.90
2024-02-17T18:38:45.431Z,11.90
2024-02-17T18:41:14.536Z,11.90
2024-02-17T18:43:43.443Z,11.90
2024-02-17T18:46:11.074Z,11.80
2024-02-17T18:48:38.280Z,11.80
2024-02-17T18:51:05.318Z,11.90
2024-02-17T18:53:32.172Z,11.90
2024-02-17T18:55:59.103Z,11.90
2024-02-17T18:58:26.003Z,11.90
2024-02-17T19:00:52.898Z,11.90
2024-02-17T19:03:19.893Z,11.90
2024-02-17T19:05:46.722Z,11.90
2024-02-17T19:08:13.548Z,11.80
2024-02-17T19:10:40.390Z,11.80
2024-02-17T19:13:07.460Z,11.80
2024-02-17T19:15:36.385Z,11.80
2024-02-17T19:18:03.943Z,11.80
2024-02-17T19:20:30.950Z,11.70
2024-02-17T19:23:03.984Z,11.70
2024-02-17T19:25:30.736Z,11.70
2024-02-17T19:27:57.691Z,11.60
2024-02-17T19:30:25.500Z,11.60
2024-02-17T19:32:52.329Z,11.60
2024-02-17T19:35:20.079Z,11.60
2024-02-17T19:37:46.891Z,11.60
2024-02-17T19:40:13.783Z,11.50
2024-02-17T19:42:40.705Z,11.50
2024-02-17T19:45:09.839Z,11.40
2024-02-17T19:47:36.719Z,11.40
2024-02-17T19:50:04.325Z,11.40
2024-02-17T19:52:31.201Z,11.40
2024-02-17T19:54:58.100Z,11.30
2024-02-17T19:57:24.894Z,11.20
2024-02-17T19:59:51.714Z,11.20
2024-02-17T20:02:18.697Z,11.10
2024-02-17T20:04:45.711Z,11.00
2024-02-17T20:07:12.611Z,11.00
2024-02-17T20:09:39.833Z,11.00
2024-02-17T20:12:07.837Z,11.00
2024-02-17T20:14:34.683Z,11.00
2024-02-17T20:17:02.609Z,11.00
2024-02-17T20:19:30.150Z,11.00
2024-02-17T20:21:59.619Z,11.00
2024-02-17T20:24:26.632Z,11.00
2024-02-17T20:26:53.727Z,11.00
2024-02-17T20:29:20.699Z,10.90
2024-02-17T20:31:48.236Z,10.90
2024-02-17T20:34:15.615Z,10.90
2024-02-17T20:36:42.873Z,10.90
2024-02-17T20:39:11.842Z,10.90
2024-02-17T20:41:40.934Z,10.90
2024-02-17T20:44:10.806Z,10.90
2024-02-17T20:46:37.677Z,10.90
2024-02-17T20:49:04.694Z,10.90
2024-02-17T20:51:31.710Z,11.00
2024-02-17T20:53:58.501Z,11.00
2024-02-17T20:56:25.537Z,11.00
2024-02-17T20:59:05.388Z,11.00
2024-02-17T21:01:40.783Z,11.00
2024-02-17T21:04:08.296Z,11.00
2024-02-17T21:06:36.229Z,11.00
2024-02-17T21:09:04.678Z,11.00
2024-02-17T21:11:31.648Z,11.00
2024-02-17T21:13:58.472Z,10.90
2024-02-17T21:16:25.271Z,10.90
2024-02-17T21:18:53.306Z,10.80
2024-02-17T21:21:28.575Z,10.80
2024-02-17T21:23:56.212Z,10.80
2024-02-17T21:26:23.358Z,10.80
2024-02-17T21:28:50.158Z,10.80
2024-02-17T21:31:17.062Z,10.80
2024-02-17T21:33:44.056Z,10.80
2024-02-17T21:36:14.079Z,10.80
2024-02-17T21:38:40.981Z,10.70
2024-02-17T21:41:07.965Z,10.70
2024-02-17T21:43:35.642Z,10.70
2024-02-17T21:46:03.737Z,10.70
2024-02-17T21:48:31.272Z,10.60
2024-02-17T21:50:58.329Z,10.50
2024-02-17T21:53:25.194Z,10.50
2024-02-17T21:55:53.021Z,10.50
2024-02-17T21:58:20.077Z,10.50
2024-02-17T22:00:47.021Z,10.50
2024-02-17T22:03:14.082Z,10.50
2024-02-17T22:05:41.002Z,10.50
2024-02-17T22:08:07.945Z,10.50
2024-02-17T22:10:34.729Z,10.50
2024-02-17T22:13:01.972Z,10.50
2024-02-17T22:15:28.889Z,10.50
2024-02-17T22:17:55.837Z,10.50
2024-02-17T22:20:22.754Z,10.60
2024-02-17T22:22:49.523Z,10.50
2024-02-17T22:25:16.598Z,10.50
2024-02-17T22:27:44.522Z,10.50
2024-02-17T22:30:11.703Z,10.50
2024-02-17T22:32:39.321Z,10.50
2024-02-17T22:35:06.712Z,10.50
2024-02-17T22:37:33.765Z,10.50
2024-02-17T22:40:00.750Z,10.40
2024-02-17T22:42:27.612Z,10.40
2024-02-17T22:44:54.465Z,10.40
2024-02-17T22:47:21.242Z,10.40
2024-02-17T22:49:48.586Z,10.40
2024-02-17T22:52:16.039Z,10.40
2024-02-17T22:54:43.006Z,10.30
2024-02-17T22:57:10.873Z,10.30
2024-02-17T22:59:42.740Z,10.20
2024-02-17T23:02:10.097Z,10.20
2024-02-17T23:04:37.255Z,10.20
2024-02-17T23:07:04.483Z,10.20
2024-02-17T23:09:32.160Z,10.20
2024-02-17T23:11:59.435Z,10.20
2024-02-17T23:14:26.479Z,10.20
2024-02-17T23:16:53.518Z,10.20
2024-02-17T23:19:20.529Z,10.20
2024-02-17T23:21:47.805Z,10.20
2024-02-17T23:24:15.212Z,10.20
2024-02-17T23:26:42.623Z,10.20
2024-02-17T23:29:09.994Z,10.20
2024-02-17T23:31:36.897Z,10.10
2024-02-17T23:34:04.434Z,10.10
2024-02-17T23:36:31.979Z,10.10
2024-02-17T23:38:58.821Z,10.00
2024-02-17T23:41:25.603Z,9.90
2024-02-17T23:43:52.413Z,9.90
2024-02-17T23:46:19.269Z,9.90
2024-02-17T23:48:46.757Z,9.90
2024-02-17T23:51:13.685Z,10.00
2024-02-17T23:53:40.478Z,10.00
2024-02-17T23:56:07.683Z,9.90
2024-02-17T23:58:34.469Z,9.90
